createdAt,value
2022-11-18T00:01:49.875Z,1.45
2022-11-18T00:04:16.648Z,3.10
2022-11-18T00:06:43.482Z,2.05
2022-11-18T00:09:10.547Z,2.17
2022-11-18T00:11:56.011Z,0.77
2022-11-18T00:14:27.354Z,2.47
2022-11-18T00:17:02.296Z,1.13
2022-11-18T00:19:39.106Z,1.20
2022-11-18T00:22:08.136Z,1.25
2022-11-18T00:24:34.916Z,2.55
2022-11-18T00:27:01.768Z,2.35
2022-11-18T00:29:28.952Z,1.25
2022-11-18T00:31:58.035Z,0.70
2022-11-18T00:34:25.736Z,0.70
2022-11-18T00:36:52.708Z,1.35
2022-11-18T00:39:20.774Z,0.60
2022-11-18T00:42:06.718Z,0.73
2022-11-18T00:44:33.814Z,1.77
2022-11-18T00:47:04.150Z,1.38
2022-11-18T00:49:32.602Z,0.70
2022-11-18T00:51:59.487Z,2.80
2022-11-18T00:54:26.191Z,2.08
2022-11-18T00:56:53.184Z,2.22
2022-11-18T00:59:21.185Z,1.73
2022-11-18T01:01:49.213Z,2.13
2022-11-18T01:04:16.064Z,1.38
2022-11-18T01:06:42.830Z,3.10
2022-11-18T01:09:12.138Z,1.92
2022-11-18T01:11:57.362Z,1.27
2022-11-18T01:14:25.207Z,1.85
2022-11-18T01:16:55.240Z,2.25
2022-11-18T01:19:22.610Z,3.47
2022-11-18T01:21:49.457Z,2.22
2022-11-18T01:24:16.259Z,4.13
2022-11-18T01:26:43.045Z,3.80
2022-11-18T01:29:10.197Z,4.03
2022-11-18T01:31:55.263Z,2.50
2022-11-18T01:34:24.556Z,4.22
2022-11-18T01:36:52.767Z,3.17
2022-11-18T01:39:20.700Z,2.60
2022-11-18T01:41:47.421Z,2.75
2022-11-18T01:45:11.480Z,3.63
2022-11-18T01:47:54.414Z,2.80
2022-11-18T01:50:22.410Z,2.60
2022-11-18T01:52:52.064Z,2.85
2022-11-18T01:55:24.963Z,4.30
2022-11-18T01:57:57.118Z,2.70
2022-11-18T02:00:23.899Z,3.10
2022-11-18T02:02:51.520Z,3.65
2022-11-18T02:05:19.164Z,2.65
2022-11-18T02:07:47.624Z,2.33
2022-11-18T02:10:21.229Z,2.72
2022-11-18T02:12:50.198Z,1.40
2022-11-18T02:15:18.981Z,1.30
2022-11-18T02:17:55.543Z,1.83
2022-11-18T02:20:35.178Z,2.92
2022-11-18T02:23:42.989Z,3.05
2022-11-18T02:26:33.310Z,2.40
2022-11-18T02:29:04.966Z,3.83
2022-11-18T02:31:55.283Z,2.97
2022-11-18T02:34:30.869Z,3.03
2022-11-18T02:37:27.189Z,3.97
2022-11-18T02:40:08.254Z,4.55
2022-11-18T02:42:38.467Z,2.58
2022-11-18T02:45:21.736Z,3.10
2022-11-18T02:47:51.630Z,3.60
2022-11-18T02:50:23.109Z,2.17
2022-11-18T02:52:54.844Z,1.98
2022-11-18T02:55:23.795Z,2.58
2022-11-18T02:57:51.949Z,2.95
2022-11-18T03:00:18.793Z,2.05
2022-11-18T03:02:47.702Z,4.03
2022-11-18T03:05:46.817Z,2.17
2022-11-18T03:08:20.719Z,1.55
2022-11-18T03:10:59.065Z,2.25
2022-11-18T03:13:41.083Z,1.00
2022-11-18T03:16:16.036Z,2.15
2022-11-18T03:19:05.515Z,1.80
2022-11-18T03:21:37.483Z,0.52
2022-11-18T03:24:18.172Z,1.25
2022-11-18T03:26:52.616Z,1.25
2022-11-18T03:29:25.876Z,1.88
2022-11-18T03:32:05.992Z,0.80
2022-11-18T03:34:39.597Z,0.93
2022-11-18T03:37:10.614Z,1.30
2022-11-18T03:39:43.131Z,1.40
2022-11-18T03:42:37.872Z,0.75
2022-11-18T03:45:22.521Z,0.70
2022-11-18T03:47:59.844Z,0.80
2022-11-18T03:50:39.362Z,1.58
2022-11-18T03:53:07.526Z,1.00
2022-11-18T03:55:39.051Z,0.50
2022-11-18T03:58:34.585Z,0.95
2022-11-18T04:01:21.636Z,2.90
2022-11-18T04:03:48.569Z,1.50
2022-11-18T04:06:37.014Z,0.80
2022-11-18T04:09:08.978Z,1.58
2022-11-18T04:12:03.222Z,1.85
2022-11-18T04:14:35.624Z,0.88
2022-11-18T04:17:09.836Z,0.85
2022-11-18T04:19:38.028Z,1.17
2022-11-18T04:22:05.084Z,2.92
2022-11-18T04:24:32.042Z,2.30
2022-11-18T04:26:58.888Z,0.85
2022-11-18T04:29:25.947Z,0.60
2022-11-18T04:31:52.732Z,3.03
2022-11-18T04:34:19.438Z,1.50
2022-11-18T04:36:46.264Z,0.40
2022-11-18T04:39:12.953Z,0.38
2022-11-18T04:41:57.942Z,0.40
2022-11-18T04:44:32.571Z,0.55
2022-11-18T04:47:02.294Z,1.48
2022-11-18T04:49:29.650Z,0.98
2022-11-18T04:51:57.289Z,0.65
2022-11-18T04:54:25.485Z,1.85
2022-11-18T04:56:52.703Z,1.65
2022-11-18T04:59:22.823Z,1.00
2022-11-18T05:01:49.896Z,0.40
2022-11-18T05:04:19.941Z,1.00
2022-11-18T05:06:46.830Z,1.27
2022-11-18T05:09:14.014Z,0.77
2022-11-18T05:12:01.557Z,1.65
2022-11-18T05:14:30.448Z,0.28
2022-11-18T05:16:58.804Z,0.88
2022-11-18T05:19:25.854Z,1.05
2022-11-18T05:21:52.921Z,0.40
2022-11-18T05:24:19.984Z,0.50
2022-11-18T05:26:47.911Z,0.88
2022-11-18T05:29:14.777Z,1.23
2022-11-18T05:31:41.814Z,1.60
2022-11-18T05:34:11.900Z,7.23
2022-11-18T05:36:39.835Z,4.68
2022-11-18T05:39:06.609Z,2.57
2022-11-18T05:41:51.990Z,1.92
2022-11-18T05:44:18.907Z,2.88
2022-11-18T05:46:45.935Z,0.80
2022-11-18T05:49:12.786Z,0.40
2022-11-18T05:51:39.693Z,1.10
2022-11-18T05:54:09.837Z,0.90
2022-11-18T05:56:38.037Z,0.40
2022-11-18T05:59:05.851Z,1.00
2022-11-18T06:01:38.286Z,0.68
2022-11-18T06:04:16.439Z,3.08
2022-11-18T06:06:44.699Z,6.17
2022-11-18T06:09:12.422Z,3.05
2022-11-18T06:11:43.656Z,2.08
2022-11-18T06:14:14.463Z,1.05
2022-11-18T06:16:46.988Z,0.80
2022-11-18T06:19:13.781Z,0.85
2022-11-18T06:21:40.584Z,0.75
2022-11-18T06:24:09.927Z,1.13
2022-11-18T06:26:38.065Z,0.75
2022-11-18T06:29:07.103Z,0.97
2022-11-18T06:31:33.931Z,0.60
2022-11-18T06:34:01.103Z,0.95
2022-11-18T06:36:27.939Z,0.60
2022-11-18T06:38:54.740Z,0.40
2022-11-18T06:41:21.581Z,0.70
2022-11-18T06:43:49.005Z,0.60
2022-11-18T06:46:35.829Z,1.02
2022-11-18T06:49:05.526Z,0.80
2022-11-18T06:51:32.465Z,0.80
2022-11-18T06:53:59.225Z,0.80
2022-11-18T06:56:26.098Z,0.70
2022-11-18T06:58:54.862Z,0.90
2022-11-18T07:01:24.644Z,1.10
2022-11-18T07:03:52.183Z,2.05
2022-11-18T07:06:22.063Z,1.27
2022-11-18T07:08:49.944Z,1.63
2022-11-18T07:11:22.378Z,0.87
2022-11-18T07:13:49.558Z,2.22
2022-11-18T07:16:21.725Z,0.73
2022-11-18T07:18:50.166Z,1.35
2022-11-18T07:21:19.244Z,1.35
2022-11-18T07:23:46.820Z,2.35
2022-11-18T07:26:14.624Z,2.85
2022-11-18T07:28:41.916Z,2.63
2022-11-18T07:31:13.665Z,1.98
2022-11-18T07:33:44.321Z,2.67
2022-11-18T07:36:13.597Z,1.98
2022-11-18T07:38:42.138Z,3.42
2022-11-18T07:41:11.830Z,1.40
2022-11-18T07:43:39.258Z,1.63
2022-11-18T07:46:13.605Z,2.03
2022-11-18T07:48:45.210Z,1.98
2022-11-18T07:51:14.920Z,1.38
2022-11-18T07:53:43.182Z,1.37
2022-11-18T07:56:10.933Z,2.40
2022-11-18T07:58:38.356Z,1.17
2022-11-18T08:01:13.752Z,1.70
2022-11-18T08:03:42.384Z,1.52
2022-11-18T08:06:10.881Z,3.50
2022-11-18T08:08:38.187Z,1.52
2022-11-18T08:11:08.387Z,3.78
2022-11-18T08:13:36.166Z,2.33
2022-11-18T08:16:04.536Z,2.88
2022-11-18T08:18:32.715Z,4.15
2022-11-18T08:21:06.124Z,2.67
2022-11-18T08:23:37.409Z,1.23
2022-11-18T08:26:12.187Z,2.13
2022-11-18T08:28:39.235Z,1.30
2022-11-18T08:31:19.418Z,2.35
2022-11-18T08:33:46.791Z,0.90
2022-11-18T08:36:17.862Z,1.42
2022-11-18T08:38:44.973Z,1.83
2022-11-18T08:41:17.528Z,1.67
2022-11-18T08:43:44.485Z,2.40
2022-11-18T08:46:11.379Z,1.60
2022-11-18T08:48:39.157Z,1.90
2022-11-18T08:51:06.249Z,2.08
2022-11-18T08:53:33.095Z,1.95
2022-11-18T08:56:01.146Z,1.77
2022-11-18T08:58:28.533Z,2.50
2022-11-18T09:00:55.599Z,2.75
2022-11-18T09:03:23.128Z,3.17
2022-11-18T09:05:50.218Z,2.10
2022-11-18T09:08:17.309Z,1.92
2022-11-18T09:10:44.031Z,2.65
2022-11-18T09:13:49.738Z,2.95
2022-11-18T09:16:01.026Z,0.80
2022-11-18T09:18:28.137Z,0.90
2022-11-18T09:21:06.493Z,1.65
2022-11-18T09:23:35.096Z,2.35
2022-11-18T09:26:05.265Z,1.77
2022-11-18T09:28:33.595Z,2.97
2022-11-18T09:31:11.302Z,1.15
2022-11-18T09:33:38.652Z,1.42
2022-11-18T09:36:11.150Z,1.50
2022-11-18T09:38:38.077Z,1.80
2022-11-18T09:41:29.241Z,1.20
2022-11-18T09:44:16.419Z,0.73
2022-11-18T09:47:14.934Z,1.23
2022-11-18T09:49:44.044Z,1.40
2022-11-18T09:52:24.707Z,1.13
2022-11-18T09:54:52.611Z,1.65
2022-11-18T09:57:38.812Z,2.78
2022-11-18T10:00:21.282Z,1.48
2022-11-18T10:03:08.313Z,0.80
2022-11-18T10:05:49.846Z,2.03
2022-11-18T10:08:32.070Z,4.78
2022-11-18T10:11:10.909Z,1.23
2022-11-18T10:13:55.989Z,0.98
2022-11-18T10:16:31.851Z,0.73
2022-11-18T10:19:27.063Z,3.42
2022-11-18T10:22:11.733Z,1.27
2022-11-18T10:24:49.592Z,1.13
2022-11-18T10:27:17.456Z,2.65
2022-11-18T10:29:53.353Z,1.48
2022-11-18T10:32:20.706Z,1.17
2022-11-18T10:34:54.854Z,1.17
2022-11-18T10:38:00.238Z,2.20
2022-11-18T10:40:27.555Z,1.38
2022-11-18T10:42:56.172Z,1.42
2022-11-18T10:45:22.937Z,1.05
2022-11-18T10:48:17.301Z,1.20
2022-11-18T10:50:55.927Z,2.17
2022-11-18T10:53:30.970Z,1.42
2022-11-18T10:56:11.315Z,1.17
2022-11-18T10:58:45.423Z,0.70
2022-11-18T11:01:27.070Z,2.25
2022-11-18T11:04:04.758Z,1.30
2022-11-18T11:06:38.264Z,1.50
2022-11-18T11:09:23.871Z,1.02
2022-11-18T11:12:15.812Z,0.80
2022-11-18T11:14:55.746Z,1.00
2022-11-18T11:17:45.874Z,0.73
2022-11-18T11:20:24.366Z,1.73
2022-11-18T11:22:56.239Z,1.05
2022-11-18T11:29:06.646Z,4.25
2022-11-18T11:32:05.623Z,2.78
2022-11-18T11:34:44.214Z,3.70
2022-11-18T11:37:25.534Z,1.08
2022-11-18T11:40:23.722Z,3.53
2022-11-18T11:43:15.256Z,2.10
2022-11-18T11:46:11.940Z,0.80
2022-11-18T11:48:44.346Z,1.67
2022-11-18T11:51:25.067Z,1.73
2022-11-18T11:54:05.274Z,1.30
2022-11-18T11:56:49.047Z,3.25
2022-11-18T11:59:37.971Z,0.93
2022-11-18T12:02:38.804Z,1.27
2022-11-18T12:05:11.520Z,2.33
2022-11-18T12:07:53.456Z,0.68
2022-11-18T12:11:00.393Z,2.33
2022-11-18T12:13:39.207Z,1.20
2022-11-18T12:16:23.274Z,10.38
2022-11-18T12:19:13.477Z,4.60
2022-11-18T12:21:46.406Z,1.77
2022-11-18T12:24:36.944Z,3.13
2022-11-18T12:27:20.117Z,1.88
2022-11-18T12:29:50.191Z,1.77
2022-11-18T12:32:46.704Z,0.77
2022-11-18T12:35:13.481Z,1.52
2022-11-18T12:37:57.947Z,0.57
2022-11-18T12:40:44.916Z,1.55
2022-11-18T12:43:49.558Z,1.60
2022-11-18T12:46:34.649Z,1.25
2022-11-18T12:49:23.066Z,2.33
2022-11-18T12:51:50.749Z,1.33
2022-11-18T12:54:36.364Z,3.40
2022-11-18T12:57:15.447Z,3.72
2022-11-18T12:59:42.138Z,13.38
2022-11-18T13:02:11.539Z,17.25
2022-11-18T13:04:44.944Z,15.10
2022-11-18T13:07:32.562Z,7.35
2022-11-18T13:10:00.540Z,17.25
2022-11-18T13:12:29.898Z,11.98
2022-11-18T13:15:15.748Z,5.30
2022-11-18T13:17:52.042Z,23.50
2022-11-18T13:20:27.691Z,5.22
2022-11-18T13:23:15.386Z,12.00
2022-11-18T13:25:47.100Z,5.78
2022-11-18T13:28:37.263Z,8.23
2022-11-18T13:31:22.051Z,2.85
2022-11-18T13:33:49.735Z,2.38
2022-11-18T13:36:24.309Z,4.53
2022-11-18T13:38:59.660Z,4.88
2022-11-18T13:41:35.198Z,3.20
2022-11-18T13:44:25.194Z,4.00
2022-11-18T13:46:58.424Z,2.40
2022-11-18T13:49:50.336Z,2.22
2022-11-18T13:52:46.382Z,2.53
2022-11-18T13:55:27.494Z,4.85
2022-11-18T13:58:05.382Z,2.15
2022-11-18T14:00:35.977Z,0.63
2022-11-18T14:03:46.226Z,1.40
2022-11-18T14:06:34.182Z,1.33
2022-11-18T14:09:06.558Z,3.22
2022-11-18T14:11:42.316Z,1.65
2022-11-18T14:14:10.899Z,1.13
2022-11-18T14:16:40.228Z,1.33
2022-11-18T14:19:07.637Z,1.23
2022-11-18T14:21:38.159Z,0.57
2022-11-18T14:24:05.755Z,3.50
2022-11-18T14:26:38.202Z,0.90
2022-11-18T14:29:22.938Z,2.50
2022-11-18T14:32:11.645Z,2.40
2022-11-18T14:34:38.374Z,1.80
2022-11-18T14:37:12.227Z,0.85
2022-11-18T14:39:39.799Z,0.70
2022-11-18T14:42:10.912Z,1.00
2022-11-18T14:44:37.597Z,1.23
2022-11-18T14:47:27.274Z,1.50
2022-11-18T14:49:54.023Z,1.98
2022-11-18T14:52:20.856Z,1.35
2022-11-18T14:54:47.565Z,1.67
2022-11-18T14:57:16.867Z,2.80
2022-11-18T14:59:43.620Z,2.97
2022-11-18T15:02:15.146Z,3.45
2022-11-18T15:04:41.864Z,3.00
2022-11-18T15:07:18.601Z,1.30
2022-11-18T15:09:49.882Z,2.10
2022-11-18T15:12:16.910Z,1.05
2022-11-18T15:14:43.645Z,1.42
2022-11-18T15:17:12.390Z,1.73
2022-11-18T15:19:40.798Z,2.58
2022-11-18T15:22:07.942Z,3.05
2022-11-18T15:24:34.623Z,2.08
2022-11-18T15:27:05.185Z,2.33
2022-11-18T15:29:32.092Z,2.40
2022-11-18T15:31:59.943Z,1.63
2022-11-18T15:34:26.740Z,2.78
2022-11-18T15:36:53.529Z,3.08
2022-11-18T15:39:20.410Z,2.25
2022-11-18T15:41:47.300Z,3.22
2022-11-18T15:44:14.119Z,4.65
2022-11-18T15:46:41.851Z,4.55
2022-11-18T15:49:13.980Z,2.97
2022-11-18T15:51:41.161Z,2.70
2022-11-18T15:54:07.861Z,2.70
2022-11-18T15:56:35.143Z,4.50
2022-11-18T15:59:02.944Z,4.88
2022-11-18T16:01:35.379Z,3.67
2022-11-18T16:04:03.595Z,6.45
2022-11-18T16:06:30.641Z,8.13
2022-11-18T16:08:59.924Z,4.53
2022-11-18T16:11:47.342Z,2.33
2022-11-18T16:14:16.776Z,5.07
2022-11-18T16:16:46.070Z,3.00
2022-11-18T16:19:15.666Z,1.70
2022-11-18T16:21:46.375Z,1.23
2022-11-18T16:24:16.843Z,3.40
2022-11-18T16:26:44.063Z,3.38
2022-11-18T16:29:12.466Z,1.10
2022-11-18T16:31:39.858Z,1.95
2022-11-18T16:34:17.761Z,2.33
2022-11-18T16:36:46.986Z,6.25
2022-11-18T16:39:24.089Z,3.65
2022-11-18T16:41:52.069Z,4.07
2022-11-18T16:44:19.314Z,14.20
2022-11-18T16:46:48.529Z,6.15
2022-11-18T16:49:17.500Z,4.10
2022-11-18T16:51:46.873Z,3.45
2022-11-18T16:54:24.835Z,2.63
2022-11-18T16:56:53.231Z,2.05
2022-11-18T16:59:24.745Z,2.60
2022-11-18T17:01:53.436Z,2.85
2022-11-18T17:04:21.610Z,3.15
2022-11-18T17:06:49.778Z,5.30
2022-11-18T17:09:19.367Z,3.10
2022-11-18T17:11:47.190Z,3.00
2022-11-18T17:14:14.144Z,2.97
2022-11-18T17:16:41.114Z,1.83
2022-11-18T17:19:11.921Z,3.45
2022-11-18T17:21:39.150Z,2.25
2022-11-18T17:24:06.760Z,3.58
2022-11-18T17:26:33.479Z,3.35
2022-11-18T17:29:00.351Z,4.10
2022-11-18T17:31:27.016Z,3.22
2022-11-18T17:33:55.724Z,3.75
2022-11-18T17:36:27.186Z,3.45
2022-11-18T17:38:56.000Z,3.90
2022-11-18T17:41:43.230Z,3.92
2022-11-18T17:44:12.313Z,4.38
2022-11-18T17:46:39.237Z,2.05
2022-11-18T17:49:10.508Z,3.33
2022-11-18T17:51:37.248Z,2.53
2022-11-18T17:54:04.071Z,1.83
2022-11-18T17:56:30.791Z,3.10
2022-11-18T17:58:57.564Z,2.72
2022-11-18T18:01:24.398Z,3.60
2022-11-18T18:03:51.243Z,2.90
2022-11-18T18:06:19.238Z,4.03
2022-11-18T18:08:45.970Z,3.33
2022-11-18T18:11:19.389Z,5.40
2022-11-18T18:14:05.050Z,7.25
2022-11-18T18:16:33.419Z,4.63
2022-11-18T18:19:02.434Z,4.47
2022-11-18T18:21:29.375Z,4.15
2022-11-18T18:23:56.537Z,3.72
2022-11-18T18:26:26.745Z,5.13
2022-11-18T18:28:58.301Z,4.22
2022-11-18T18:31:25.433Z,5.43
2022-11-18T18:33:52.168Z,2.63
2022-11-18T18:36:20.347Z,3.08
2022-11-18T18:38:47.552Z,2.53
2022-11-18T18:41:17.335Z,3.47
2022-11-18T18:43:46.029Z,5.53
2022-11-18T18:46:36.463Z,2.72
2022-11-18T18:49:11.590Z,2.80
2022-11-18T18:51:40.586Z,3.70
2022-11-18T18:54:10.235Z,5.30
2022-11-18T18:56:38.503Z,4.85
2022-11-18T18:59:05.718Z,4.35
2022-11-18T19:01:33.665Z,2.50
2022-11-18T19:04:03.565Z,2.10
2022-11-18T19:09:19.841Z,2.63
2022-11-18T19:12:05.457Z,3.15
2022-11-18T19:14:34.820Z,3.67
2022-11-18T19:17:06.646Z,2.45
2022-11-18T19:19:54.710Z,2.13
2022-11-18T19:22:21.366Z,6.10
2022-11-18T19:24:50.565Z,3.10
2022-11-18T19:27:19.302Z,4.85
2022-11-18T19:29:46.393Z,1.97
2022-11-18T19:32:13.579Z,2.05
2022-11-18T19:34:40.298Z,2.40
2022-11-18T19:37:07.266Z,2.72
2022-11-18T19:39:35.130Z,3.58
2022-11-18T19:42:02.131Z,3.30
2022-11-18T19:44:29.083Z,2.45
2022-11-18T19:46:55.783Z,3.13
2022-11-18T19:49:22.858Z,3.13
2022-11-18T19:51:49.951Z,3.00
2022-11-18T19:54:16.654Z,4.43
2022-11-18T19:56:43.578Z,3.03
2022-11-18T19:59:12.577Z,4.38
2022-11-18T20:01:39.584Z,3.40
2022-11-18T20:04:06.353Z,3.28
2022-11-18T20:06:35.091Z,3.15
2022-11-18T20:09:02.402Z,3.78
2022-11-18T20:11:29.215Z,6.05
2022-11-18T20:13:58.602Z,5.28
2022-11-18T20:16:43.761Z,7.63
2022-11-18T20:19:13.733Z,3.53
2022-11-18T20:21:43.356Z,6.32
2022-11-18T20:24:15.971Z,5.18
2022-11-18T20:26:44.151Z,5.80
2022-11-18T20:29:10.940Z,6.53
2022-11-18T20:31:37.765Z,4.25
2022-11-18T20:34:04.837Z,6.13
2022-11-18T20:36:36.281Z,4.67
2022-11-18T20:39:11.208Z,5.67
2022-11-18T20:41:37.910Z,6.43
2022-11-18T20:44:04.821Z,5.40
2022-11-18T20:46:31.689Z,4.57
2022-11-18T20:48:58.448Z,6.90
2022-11-18T20:51:27.901Z,4.97
2022-11-18T20:53:56.566Z,7.90
2022-11-18T20:56:27.776Z,4.90
2022-11-18T20:58:57.182Z,5.87
2022-11-18T21:01:26.730Z,6.80
2022-11-18T21:03:55.844Z,4.93
2022-11-18T21:06:24.619Z,6.63
2022-11-18T21:08:55.902Z,5.10
2022-11-18T21:11:22.742Z,7.07
2022-11-18T21:14:07.940Z,4.43
2022-11-18T21:16:34.595Z,5.40
2022-11-18T21:19:01.287Z,7.07
2022-11-18T21:21:47.762Z,5.90
2022-11-18T21:24:22.925Z,4.93
2022-11-18T21:26:52.591Z,4.40
2022-11-18T21:29:19.721Z,6.37
2022-11-18T21:31:50.025Z,3.50
2022-11-18T21:34:17.739Z,6.20
2022-11-18T21:36:49.009Z,7.17
2022-11-18T21:39:18.656Z,5.80
2022-11-18T21:41:47.534Z,4.67
2022-11-18T21:44:17.514Z,4.77
2022-11-18T21:46:44.224Z,4.63
2022-11-18T21:49:11.003Z,4.67
2022-11-18T21:51:37.976Z,5.53
2022-11-18T21:54:05.164Z,7.30
2022-11-18T21:56:32.204Z,6.33
2022-11-18T21:59:00.981Z,5.13
2022-11-18T22:01:30.280Z,6.33
2022-11-18T22:03:59.168Z,4.30
2022-11-18T22:06:31.632Z,6.23
2022-11-18T22:08:58.643Z,4.93
2022-11-18T22:11:25.909Z,3.43
2022-11-18T22:13:53.275Z,4.37
2022-11-18T22:16:22.523Z,8.80
2022-11-18T22:18:56.657Z,5.27
2022-11-18T22:21:28.560Z,6.07
2022-11-18T22:24:00.407Z,5.33
2022-11-18T22:26:28.500Z,5.80
2022-11-18T22:28:57.211Z,6.00
2022-11-18T22:31:26.359Z,6.73
2022-11-18T22:33:54.466Z,5.83
2022-11-18T22:36:23.143Z,6.23
2022-11-18T22:38:50.457Z,6.60
2022-11-18T22:41:41.584Z,4.70
2022-11-18T22:44:09.658Z,4.57
2022-11-18T22:46:37.785Z,5.83
2022-11-18T22:49:05.855Z,7.50
2022-11-18T22:51:33.150Z,3.97
2022-11-18T22:54:30.913Z,5.37
2022-11-18T22:56:46.711Z,4.87
2022-11-18T22:59:13.918Z,4.13
2022-11-18T23:01:40.740Z,4.73
2022-11-18T23:04:07.700Z,6.33
2022-11-18T23:06:34.428Z,6.83
2022-11-18T23:09:01.156Z,5.23
2022-11-18T23:11:46.360Z,3.80
2022-11-18T23:14:13.179Z,5.03
2022-11-18T23:16:41.777Z,6.40
2022-11-18T23:19:10.908Z,4.67
2022-11-18T23:21:37.953Z,4.00
2022-11-18T23:24:05.282Z,5.50
2022-11-18T23:26:32.164Z,3.60
2022-11-18T23:28:59.416Z,5.33
2022-11-18T23:31:27.446Z,6.17
2022-11-18T23:33:55.486Z,6.73
2022-11-18T23:36:23.254Z,4.90
2022-11-18T23:38:50.165Z,7.97
2022-11-18T23:41:17.828Z,7.20
2022-11-18T23:43:48.501Z,4.73
2022-11-18T23:46:17.581Z,4.70
2022-11-18T23:48:45.318Z,4.43
2022-11-18T23:51:18.268Z,5.53
2022-11-18T23:53:46.035Z,4.27
2022-11-18T23:56:17.588Z,4.00
2022-11-18T23:58:47.718Z,6.07
